Time;durP1;ratioP1;P1;durP2;ratioP2;P2;SDS_P1;SDS_P2;PMS_P1;PMS_P2;Temp;Humidity;BMP_temperature;BMP_pressure;BME280_temperature;BME280_humidity;BME280_pressure;Samples;Min_cycle;Max_cycle;Signal;HPM_P1;HPM_P2
2021/06/11 00:00:31;;;;;;;5.43;3.35;;;;;;;15.45;62.13;93835.75;5112575;27;20020;-77
2021/06/11 00:02:57;;;;;;;5.85;3.38;;;;;;;15.41;63.22;93837.56;5104780;28;20027;-77
2021/06/11 00:05:22;;;;;;;6.20;3.20;;;;;;;15.41;63.23;93832.97;5098778;28;20103;-77
2021/06/11 00:07:47;;;;;;;9.13;3.88;;;;;;;15.41;62.75;93838.31;5101671;28;20134;-77
2021/06/11 00:10:15;;;;;;;5.07;2.90;;;;;;;15.41;62.38;93835.63;5110966;28;20051;-78
2021/06/11 00:12:41;;;;;;;4.00;2.63;;;;;;;15.43;62.62;93835.31;5095286;28;20020;-78
2021/06/11 00:15:10;;;;;;;8.43;3.75;;;;;;;15.47;62.83;93832.69;5100829;28;20019;-78
2021/06/11 00:17:35;;;;;;;4.75;2.75;;;;;;;15.47;62.99;93832.69;5101902;28;20479;-78
2021/06/11 00:20:01;;;;;;;5.35;2.80;;;;;;;15.44;63.22;93834.16;5103606;28;20030;-78
2021/06/11 00:22:26;;;;;;;5.72;2.85;;;;;;;15.41;63.48;93827.59;5101240;28;20051;-78
2021/06/11 00:24:52;;;;;;;5.10;3.20;;;;;;;15.40;63.55;93826.00;5098777;28;20046;-78
2021/06/11 00:27:18;;;;;;;6.53;3.63;;;;;;;15.37;63.81;93828.63;5108580;28;20020;-78
2021/06/11 00:29:43;;;;;;;4.75;3.20;;;;;;;15.33;63.34;93820.47;5120132;28;20545;-78
2021/06/11 00:32:08;;;;;;;4.15;2.67;;;;;;;15.33;63.18;93823.16;5114997;28;20111;-78
2021/06/11 00:34:34;;;;;;;5.53;2.60;;;;;;;15.30;62.59;93815.00;5127497;28;20028;-78
2021/06/11 00:36:59;;;;;;;10.40;2.65;;;;;;;15.28;62.45;93817.25;5128968;27;20070;-78
2021/06/11 00:39:25;;;;;;;6.25;2.95;;;;;;;15.22;62.51;93814.81;5116412;28;20107;-78
2021/06/11 00:41:50;;;;;;;6.22;2.67;;;;;;;15.21;63.10;93807.09;5115136;28;20087;-77
2021/06/11 00:44:16;;;;;;;7.25;3.17;;;;;;;15.20;63.63;93805.53;5115897;28;20116;-78
2021/06/11 00:46:41;;;;;;;5.80;3.60;;;;;;;15.17;63.68;93808.91;5120916;28;20020;-78
2021/06/11 00:49:07;;;;;;;5.28;3.30;;;;;;;15.17;63.95;93806.22;5115087;28;20028;-78
2021/06/11 00:51:32;;;;;;;9.45;3.28;;;;;;;15.11;63.99;93804.91;5109246;28;20030;-78
2021/06/11 00:54:02;;;;;;;4.63;2.30;;;;;;;15.08;63.88;93810.94;5117893;28;20049;-78
2021/06/11 00:56:27;;;;;;;6.72;2.70;;;;;;;15.03;63.75;93810.06;5111772;28;20077;-78
2021/06/11 00:58:53;;;;;;;4.88;2.72;;;;;;;14.98;63.82;93826.44;5106026;28;20036;-78
2021/06/11 01:01:19;;;;;;;3.80;2.80;;;;;;;14.95;63.97;93811.00;5105290;28;20032;-77
2021/06/11 01:03:44;;;;;;;5.78;2.60;;;;;;;14.89;64.06;93814.28;5099723;28;20034;-77
2021/06/11 01:06:11;;;;;;;6.90;2.83;;;;;;;14.81;64.42;93808.69;5098958;28;20036;-77
2021/06/11 01:08:39;;;;;;;3.75;3.00;;;;;;;14.77;64.74;93809.72;5109490;28;20027;-78
2021/06/11 01:11:05;;;;;;;7.07;2.97;;;;;;;14.73;64.85;93803.47;5105817;28;20445;-78
2021/06/11 01:13:31;;;;;;;4.03;2.53;;;;;;;14.70;65.10;93799.59;5102608;28;20024;-77
2021/06/11 01:15:57;;;;;;;5.40;3.03;;;;;;;14.68;65.03;93803.72;5106844;28;20020;-78
2021/06/11 01:18:22;;;;;;;4.50;3.08;;;;;;;14.64;65.55;93804.41;5103532;28;20062;-77
2021/06/11 01:20:48;;;;;;;7.10;3.00;;;;;;;14.61;65.75;93807.78;5103747;28;20059;-77
2021/06/11 01:23:32;;;;;;;4.47;2.92;;;;;;;14.55;65.44;93814.47;5097819;28;20449;-77
2021/06/11 01:26:22;;;;;;;4.10;2.75;;;;;;;14.46;65.69;93816.47;5103383;28;20028;-77
2021/06/11 01:28:51;;;;;;;6.28;2.90;;;;;;;14.32;65.77;93819.50;5102482;28;20055;-77
2021/06/11 01:31:18;;;;;;;5.78;2.80;;;;;;;14.25;66.35;93819.31;5106670;28;20039;-77
2021/06/11 01:33:46;;;;;;;6.75;3.10;;;;;;;14.16;66.48;93830.13;5106103;28;20059;-77
2021/06/11 01:36:18;;;;;;;6.72;3.85;;;;;;;14.15;66.83;93812.50;5107215;28;20099;-77
2021/06/11 01:38:45;;;;;;;8.90;3.77;;;;;;;14.16;66.93;93813.28;5104397;28;20055;-77
2021/06/11 01:41:15;;;;;;;4.82;3.38;;;;;;;14.19;66.71;93826.78;5094346;28;20281;-77
2021/06/11 01:43:42;;;;;;;7.88;3.53;;;;;;;14.19;67.22;93826.78;5105155;28;20066;-77
2021/06/11 01:46:10;;;;;;;7.90;3.22;;;;;;;14.19;67.33;93817.97;5096072;28;20043;-77
2021/06/11 01:48:41;;;;;;;6.35;3.33;;;;;;;14.20;67.39;93814.94;5098018;28;20040;-77
2021/06/11 01:51:09;;;;;;;4.63;3.15;;;;;;;14.25;67.58;93816.63;5105927;28;20028;-77
2021/06/11 01:53:37;;;;;;;7.22;3.78;;;;;;;14.24;67.38;93807.00;5102747;28;20024;-77
2021/06/11 01:56:03;;;;;;;6.88;3.63;;;;;;;14.22;67.40;93807.34;5097921;28;20524;-77
2021/06/11 01:58:30;;;;;;;5.80;3.88;;;;;;;14.25;67.72;93811.25;5096904;28;20476;-77
2021/06/11 02:00:57;;;;;;;5.65;3.10;;;;;;;14.27;67.31;93808.22;5104104;28;20036;-77
2021/06/11 02:03:24;;;;;;;5.05;3.08;;;;;;;14.20;67.38;93812.25;5108614;28;20034;-76
2021/06/11 02:05:52;;;;;;;6.40;3.88;;;;;;;14.19;67.48;93802.66;5092866;28;20031;-76
2021/06/11 02:08:19;;;;;;;7.72;3.33;;;;;;;14.17;67.83;93799.53;5099457;28;20027;-76
2021/06/11 02:10:46;;;;;;;7.85;3.33;;;;;;;14.13;68.01;93793.28;5099385;28;20044;-75
2021/06/11 02:13:11;;;;;;;9.00;3.65;;;;;;;14.12;67.69;93804.34;5105254;28;20098;-76
2021/06/11 02:15:38;;;;;;;6.53;3.63;;;;;;;14.12;67.95;93799.75;5103496;28;20023;-75
2021/06/11 02:18:04;;;;;;;5.85;3.40;;;;;;;14.11;68.09;93795.53;5094205;28;20028;-76
2021/06/11 02:20:29;;;;;;;9.20;3.20;;;;;;;14.12;68.11;93797.06;5099437;28;20483;-76
2021/06/11 02:22:55;;;;;;;5.07;2.95;;;;;;;14.12;68.14;93791.72;5108328;28;20083;-76
2021/06/11 02:25:24;;;;;;;5.95;3.60;;;;;;;14.07;68.00;93793.88;5096440;28;20031;-76
2021/06/11 02:27:50;;;;;;;5.22;3.38;;;;;;;14.04;68.16;93800.66;5097797;28;20093;-76
2021/06/11 02:30:18;;;;;;;9.63;3.42;;;;;;;14.03;68.27;93797.19;5106895;28;20134;-76
2021/06/11 02:32:44;;;;;;;7.25;3.35;;;;;;;14.01;68.41;93798.66;5095205;28;20395;-76
2021/06/11 02:35:16;;;;;;;5.35;3.47;;;;;;;14.01;68.50;93806.69;5105415;28;20034;-77
2021/06/11 02:37:41;;;;;;;6.22;3.85;;;;;;;13.99;68.73;93806.25;5103702;28;20055;-76
2021/06/11 02:40:08;;;;;;;6.88;3.90;;;;;;;13.96;68.65;93804.22;5104915;28;20106;-76
2021/06/11 02:42:34;;;;;;;6.35;3.45;;;;;;;13.96;69.07;93814.94;5099504;28;20024;-77
2021/06/11 02:45:03;;;;;;;5.68;3.65;;;;;;;13.96;68.87;93807.72;5104856;28;20089;-76
2021/06/11 02:47:39;;;;;;;5.32;3.60;;;;;;;13.93;69.03;93813.72;5097457;28;20089;-77
2021/06/11 02:50:15;;;;;;;7.97;3.83;;;;;;;13.92;68.92;93817.53;5098516;28;20028;-76
2021/06/11 02:52:45;;;;;;;8.07;4.50;;;;;;;13.93;69.21;93815.63;5101505;28;20039;-76
2021/06/11 02:55:14;;;;;;;9.32;4.97;;;;;;;13.91;69.26;93817.88;5105523;28;20067;-77
2021/06/11 02:57:52;;;;;;;7.82;5.00;;;;;;;13.89;69.16;93817.41;5109836;28;20027;-77
2021/06/11 03:00:19;;;;;;;9.32;4.50;;;;;;;13.82;69.82;93816.06;5107859;27;20019;-77
2021/06/11 03:02:59;;;;;;;8.60;4.53;;;;;;;13.85;69.76;93812.72;5107028;28;20398;-76
2021/06/11 03:05:25;;;;;;;7.47;4.30;;;;;;;13.85;69.61;93819.97;5101030;28;20061;-76
2021/06/11 03:07:54;;;;;;;8.02;4.25;;;;;;;13.83;69.80;93812.25;5105725;28;20498;-76
2021/06/11 03:10:32;;;;;;;6.18;3.88;;;;;;;13.80;70.26;93814.84;5105966;28;20059;-76
2021/06/11 03:13:01;;;;;;;10.38;4.22;;;;;;;13.83;70.49;93817.63;5105058;28;20059;-75
2021/06/11 03:15:30;;;;;;;5.32;3.70;;;;;;;13.84;70.61;93813.06;5104873;28;20026;-76
2021/06/11 03:17:59;;;;;;;5.43;3.65;;;;;;;13.82;70.63;93818.75;5108069;28;20146;-76
2021/06/11 03:20:31;;;;;;;5.13;3.78;;;;;;;13.87;70.85;93816.97;5105585;28;20028;-77
2021/06/11 03:23:00;;;;;;;8.05;4.47;;;;;;;13.90;70.43;93824.31;5099271;28;20028;-76
2021/06/11 03:25:30;;;;;;;8.45;4.88;;;;;;;13.91;70.62;93817.88;5100023;28;20031;-76
2021/06/11 03:28:04;;;;;;;7.22;4.15;;;;;;;13.94;70.74;93817.19;5101018;28;20022;-76
2021/06/11 03:30:31;;;;;;;7.55;4.03;;;;;;;13.99;70.69;93814.28;5103712;28;20020;-76
2021/06/11 03:33:05;;;;;;;7.63;4.53;;;;;;;14.02;70.55;93818.97;5104089;28;20078;-78
2021/06/11 03:35:36;;;;;;;7.35;5.05;;;;;;;14.07;70.35;93824.13;5093394;28;20027;-77
2021/06/11 03:38:06;;;;;;;6.05;4.03;;;;;;;14.12;70.42;93823.09;5098460;28;20035;-77
2021/06/11 03:40:37;;;;;;;8.75;4.82;;;;;;;14.14;70.59;93818.97;5097374;28;20070;-77
2021/06/11 03:43:03;;;;;;;7.80;4.22;;;;;;;14.20;70.38;93819.53;5106814;28;20027;-77
2021/06/11 03:45:29;;;;;;;6.85;4.32;;;;;;;14.23;70.30;93816.97;5104281;28;20024;-77
2021/06/11 03:47:57;;;;;;;8.60;5.15;;;;;;;14.30;70.15;93829.00;5104842;28;20094;-77
2021/06/11 03:50:25;;;;;;;7.63;4.85;;;;;;;14.38;69.89;93825.44;5101434;28;20035;-77
2021/06/11 03:52:54;;;;;;;10.07;5.13;;;;;;;14.43;69.99;93828.66;5094596;28;20031;-77
2021/06/11 03:55:22;;;;;;;12.65;5.00;;;;;;;14.43;69.52;93830.53;5100082;28;20046;-77
2021/06/11 03:57:53;;;;;;;7.00;4.55;;;;;;;14.51;69.38;93824.31;5094376;28;20448;-77
2021/06/11 04:00:22;;;;;;;7.78;4.93;;;;;;;14.57;69.42;93833.72;5105103;28;20344;-76
2021/06/11 04:02:48;;;;;;;14.20;5.10;;;;;;;14.64;69.01;93833.13;5099345;28;20368;-76
2021/06/11 04:05:14;;;;;;;7.65;6.05;;;;;;;14.70;68.56;93836.38;5098070;28;20106;-76
2021/06/11 04:07:50;;;;;;;14.93;5.95;;;;;;;14.78;68.94;93838.13;5110512;28;20049;-77
2021/06/11 04:10:21;;;;;;;9.57;7.32;;;;;;;14.85;69.08;93835.63;5103909;28;20143;-77
2021/06/11 04:12:52;;;;;;;11.70;7.55;;;;;;;14.91;69.06;93836.97;5109201;28;20020;-77
2021/06/11 04:15:18;;;;;;;13.77;7.50;;;;;;;14.99;68.84;93837.94;5099034;28;20038;-76
2021/06/11 04:17:49;;;;;;;13.48;7.25;;;;;;;15.03;68.37;93842.28;5102920;28;20024;-77
2021/06/11 04:20:27;;;;;;;12.10;7.03;;;;;;;15.07;68.29;93844.31;5107644;28;20487;-77
2021/06/11 04:22:54;;;;;;;16.00;6.78;;;;;;;15.02;68.57;93840.75;5102147;28;20031;-77
2021/06/11 04:25:21;;;;;;;14.85;7.78;;;;;;;15.11;69.00;93837.91;5106494;28;20084;-77
2021/06/11 04:27:50;;;;;;;15.43;7.05;;;;;;;15.19;68.91;93836.19;5103229;28;20028;-77
2021/06/11 04:30:16;;;;;;;19.10;7.50;;;;;;;15.24;68.89;93833.25;5106254;28;20032;-78
2021/06/11 04:32:42;;;;;;;11.38;7.50;;;;;;;15.32;68.46;93839.59;5107717;28;20129;-77
2021/06/11 04:35:08;;;;;;;21.15;8.00;;;;;;;15.39;68.28;93845.16;5100386;28;20051;-76
2021/06/11 04:37:36;;;;;;;22.27;7.85;;;;;;;15.45;68.36;93843.78;5106285;28;20027;-76
2021/06/11 04:40:02;;;;;;;19.88;8.75;;;;;;;15.43;67.74;93846.81;5095017;28;20056;-78
2021/06/11 04:42:28;;;;;;;11.40;7.60;;;;;;;15.45;68.07;93844.56;5103328;28;20028;-77
2021/06/11 04:44:53;;;;;;;17.05;8.18;;;;;;;15.40;67.84;93842.13;5106380;28;20034;-77
2021/06/11 04:47:19;;;;;;;14.73;7.72;;;;;;;15.44;67.75;93847.59;5104199;27;20410;-77
2021/06/11 04:49:44;;;;;;;18.25;8.77;;;;;;;15.45;67.64;93838.44;5123152;27;20028;-77
2021/06/11 04:52:10;;;;;;;12.82;8.35;;;;;;;15.44;68.20;93837.63;5105652;28;20046;-77
2021/06/11 04:54:35;;;;;;;12.85;7.28;;;;;;;15.47;67.87;93838.06;5108079;28;20042;-76
2021/06/11 04:57:01;;;;;;;14.98;8.43;;;;;;;15.52;67.71;93837.81;5100955;28;20107;-77
2021/06/11 04:59:27;;;;;;;14.00;9.13;;;;;;;15.43;68.82;93841.44;5106065;28;20028;-77
2021/06/11 05:01:52;;;;;;;13.88;8.93;;;;;;;15.51;68.99;93841.63;5098349;28;20035;-77
2021/06/11 05:04:18;;;;;;;15.07;8.52;;;;;;;15.64;69.39;93846.59;5095763;28;20507;-71
2021/06/11 05:06:43;;;;;;;14.75;8.23;;;;;;;15.70;69.31;93847.13;5100768;28;20038;-71
2021/06/11 05:09:08;;;;;;;14.93;8.32;;;;;;;15.74;68.58;93845.34;5103016;28;20034;-71
2021/06/11 05:11:34;;;;;;;12.45;7.72;;;;;;;15.77;69.07;93850.03;5094161;28;20070;-71
2021/06/11 05:13:59;;;;;;;26.42;11.38;;;;;;;15.84;68.79;93850.19;5109354;28;20490;-71
2021/06/11 05:16:26;;;;;;;16.77;7.68;;;;;;;16.01;68.67;93859.03;5105345;28;20091;-72
2021/06/11 05:18:51;;;;;;;15.73;7.35;;;;;;;16.18;68.73;93847.94;5106581;28;20062;-71
2021/06/11 05:21:17;;;;;;;16.02;7.03;;;;;;;16.32;67.70;93852.06;5096699;28;20067;-72
2021/06/11 05:23:42;;;;;;;14.77;6.43;;;;;;;16.44;66.95;93849.28;5109884;28;20032;-72
2021/06/11 05:26:07;;;;;;;19.33;6.40;;;;;;;16.57;66.68;93848.06;5089953;28;20107;-72
2021/06/11 05:28:33;;;;;;;11.38;6.07;;;;;;;16.72;65.57;93848.38;5097259;28;20360;-71
2021/06/11 05:30:58;;;;;;;13.23;6.40;;;;;;;16.83;65.40;93849.38;5089902;28;20016;-71
2021/06/11 05:33:24;;;;;;;12.20;6.10;;;;;;;16.91;65.20;93851.09;5094465;28;20034;-71
2021/06/11 05:35:50;;;;;;;11.55;6.35;;;;;;;17.00;64.17;93856.28;5100349;28;20028;-70
2021/06/11 05:38:16;;;;;;;15.63;5.55;;;;;;;17.09;63.92;93853.38;5093049;28;20027;-70
2021/06/11 05:40:42;;;;;;;14.02;6.45;;;;;;;17.15;64.07;93857.34;5102689;28;20050;-70
2021/06/11 05:43:07;;;;;;;11.05;5.68;;;;;;;17.17;63.72;93853.16;5096997;28;20476;-72
2021/06/11 05:45:33;;;;;;;11.45;5.35;;;;;;;17.20;63.22;93865.16;5104866;28;20058;-71
2021/06/11 05:48:00;;;;;;;18.73;5.80;;;;;;;17.24;63.63;93857.94;5089540;28;20032;-72
2021/06/11 05:50:26;;;;;;;8.43;4.93;;;;;;;17.23;63.23;93861.75;5089686;28;20020;-72
2021/06/11 05:52:53;;;;;;;15.07;5.10;;;;;;;17.19;64.06;93867.06;5088157;28;20055;-73
2021/06/11 05:55:19;;;;;;;7.65;4.13;;;;;;;17.16;64.72;93870.47;5089682;28;20045;-71
2021/06/11 05:57:44;;;;;;;10.50;4.43;;;;;;;17.17;63.86;93879.31;5107393;28;20061;-72
2021/06/11 06:00:10;;;;;;;11.68;5.07;;;;;;;17.12;63.82;93872.31;5105824;28;20089;-72
2021/06/11 06:02:35;;;;;;;10.98;5.07;;;;;;;17.00;63.78;93873.22;5088181;28;20547;-72
2021/06/11 06:05:02;;;;;;;9.52;4.47;;;;;;;17.03;63.50;93871.72;5088177;28;20400;-72
2021/06/11 06:07:27;;;;;;;8.52;4.95;;;;;;;17.02;63.57;93878.25;5089509;28;20036;-71
2021/06/11 06:09:54;;;;;;;21.48;4.93;;;;;;;17.09;63.28;93880.31;5087979;28;20024;-72
2021/06/11 06:12:19;;;;;;;10.00;4.90;;;;;;;16.98;62.09;93883.56;5088109;28;20053;-72
2021/06/11 06:14:45;;;;;;;20.23;4.57;;;;;;;16.99;62.19;93884.34;5098762;28;20016;-72
2021/06/11 06:17:10;;;;;;;7.43;3.92;;;;;;;17.02;61.99;93886.34;5093708;28;20119;-72
2021/06/11 06:19:37;;;;;;;9.23;4.00;;;;;;;16.87;61.85;93871.00;5097009;28;20024;-72
2021/06/11 06:22:03;;;;;;;14.77;4.28;;;;;;;16.81;61.46;93867.78;5109402;28;20028;-72
2021/06/11 06:24:28;;;;;;;5.18;3.75;;;;;;;16.86;62.37;93875.63;5110712;28;20030;-72
2021/06/11 06:26:53;;;;;;;14.95;4.10;;;;;;;16.91;62.53;93869.94;5113409;28;20055;-72
2021/06/11 06:29:19;;;;;;;8.73;3.97;;;;;;;17.02;63.27;93872.88;5113680;28;20080;-72
2021/06/11 06:31:44;;;;;;;6.70;3.55;;;;;;;17.17;62.92;93873.94;5113071;28;20532;-72
2021/06/11 06:34:09;;;;;;;9.73;3.72;;;;;;;17.34;61.74;93878.09;5098497;28;20028;-72
2021/06/11 06:36:35;;;;;;;10.25;4.15;;;;;;;17.38;61.22;93876.25;5091374;28;20454;-72
2021/06/11 06:39:03;;;;;;;9.77;3.88;;;;;;;17.59;60.31;93878.59;5092909;28;20031;-72
2021/06/11 06:41:29;;;;;;;10.13;4.32;;;;;;;17.64;60.55;93878.31;5091374;28;20062;-72
2021/06/11 06:43:54;;;;;;;17.83;3.65;;;;;;;17.74;59.77;93882.34;5091306;28;20533;-72
2021/06/11 06:46:23;;;;;;;8.27;3.65;;;;;;;17.79;59.47;93872.03;5092644;28;20486;-72
2021/06/11 06:48:50;;;;;;;14.07;3.50;;;;;;;17.88;59.96;93884.53;5100870;28;20051;-70
2021/06/11 06:51:16;;;;;;;5.53;3.85;;;;;;;17.83;59.32;93880.22;5091567;28;20050;-71
2021/06/11 06:53:42;;;;;;;8.05;3.50;;;;;;;17.77;59.94;93871.63;5091383;28;20155;-71
2021/06/11 06:56:07;;;;;;;13.23;3.85;;;;;;;17.86;58.63;93876.81;5092834;28;20051;-71
2021/06/11 06:58:33;;;;;;;6.75;3.53;;;;;;;17.97;58.48;93868.91;5093216;28;20449;-71
2021/06/11 07:00:58;;;;;;;7.25;4.10;;;;;;;18.11;58.43;93869.13;5092774;28;20042;-71
2021/06/11 07:03:23;;;;;;;16.27;6.00;;;;;;;18.24;58.32;93875.16;5092616;28;20117;-70
2021/06/11 07:05:49;;;;;;;11.48;4.07;;;;;;;18.35;57.58;93869.91;5091272;28;20093;-68
2021/06/11 07:08:14;;;;;;;9.85;4.22;;;;;;;18.43;57.19;93868.88;5097006;28;20491;-68
2021/06/11 07:10:40;;;;;;;6.53;3.63;;;;;;;18.49;57.05;93870.13;5092565;28;20105;-69
2021/06/11 07:13:05;;;;;;;9.05;3.45;;;;;;;18.56;56.85;93862.16;5096820;28;20339;-68
2021/06/11 07:15:30;;;;;;;10.60;3.85;;;;;;;18.60;56.85;93865.69;5113049;28;20031;-69
2021/06/11 07:17:57;;;;;;;11.70;4.03;;;;;;;18.68;56.37;93860.38;5092067;28;20118;-68
2021/06/11 07:20:23;;;;;;;12.00;3.45;;;;;;;18.69;56.00;93861.94;5094452;28;20016;-68
2021/06/11 07:22:49;;;;;;;7.53;3.10;;;;;;;18.62;54.91;93858.00;5106241;28;20373;-69
2021/06/11 07:25:14;;;;;;;6.18;3.30;;;;;;;18.62;55.71;93846.41;5092339;28;20032;-69
2021/06/11 07:27:40;;;;;;;8.98;3.85;;;;;;;18.69;56.18;93851.16;5107708;28;20028;-69
2021/06/11 07:30:08;;;;;;;10.20;3.63;;;;;;;18.69;54.18;93861.94;5092133;28;20031;-68
2021/06/11 07:32:34;;;;;;;19.73;3.75;;;;;;;18.73;55.39;93857.38;5103413;28;20847;-69
2021/06/11 07:35:00;;;;;;;5.60;3.70;;;;;;;18.80;54.96;93854.78;5128031;27;20051;-69
2021/06/11 07:37:25;;;;;;;8.73;3.80;;;;;;;18.83;55.36;93840.56;5092736;28;20032;-68
2021/06/11 07:39:51;;;;;;;8.45;3.05;;;;;;;18.83;55.07;93851.38;5090988;28;20024;-69
2021/06/11 07:42:17;;;;;;;13.63;3.55;;;;;;;18.93;55.07;93844.53;5090833;28;20058;-68
2021/06/11 07:44:43;;;;;;;7.78;3.90;;;;;;;19.02;54.64;93840.41;5092217;28;20135;-69
2021/06/11 07:47:09;;;;;;;6.82;3.58;;;;;;;19.13;54.26;93853.28;5091862;28;20224;-68
2021/06/11 07:49:34;;;;;;;8.88;3.78;;;;;;;19.23;53.31;93847.22;5106757;28;20019;-68
2021/06/11 07:52:00;;;;;;;7.57;2.97;;;;;;;19.21;51.36;93849.50;5105371;28;20035;-69
2021/06/11 07:54:26;;;;;;;6.85;2.95;;;;;;;19.32;51.34;93861.25;5093092;28;20102;-68
2021/06/11 07:56:51;;;;;;;6.47;4.20;;;;;;;19.36;52.71;93856.66;5091616;28;20024;-68
2021/06/11 07:59:20;;;;;;;8.07;2.95;;;;;;;19.55;51.95;93852.22;5091489;28;20024;-68
2021/06/11 08:01:45;;;;;;;5.75;3.25;;;;;;;19.68;52.45;93861.63;5091516;28;20066;-69
2021/06/11 08:04:11;;;;;;;5.88;3.70;;;;;;;19.76;51.58;93862.50;5098039;28;20051;-69
2021/06/11 08:06:36;;;;;;;6.25;3.25;;;;;;;19.79;50.53;93859.84;5112177;28;20084;-69
2021/06/11 08:09:02;;;;;;;5.95;2.97;;;;;;;19.60;51.05;93862.69;5110654;28;20032;-69
2021/06/11 08:11:28;;;;;;;7.93;3.47;;;;;;;19.52;52.19;93866.47;5119026;27;20046;-70
2021/06/11 08:13:53;;;;;;;7.18;2.85;;;;;;;19.47;52.00;93845.19;5091229;28;20020;-69
2021/06/11 08:16:18;;;;;;;8.00;3.60;;;;;;;19.64;52.04;93850.78;5091222;28;20483;-69
2021/06/11 08:18:44;;;;;;;9.45;3.03;;;;;;;19.71;50.60;93855.50;5097388;28;20087;-69
2021/06/11 08:21:09;;;;;;;16.70;3.33;;;;;;;19.71;50.91;93860.16;5110521;28;20038;-69
2021/06/11 08:23:35;;;;;;;5.65;2.67;;;;;;;19.68;49.85;93858.91;5111360;28;20024;-67
2021/06/11 08:26:00;;;;;;;6.47;3.30;;;;;;;19.78;49.39;93860.22;5111628;28;20031;-68
2021/06/11 08:28:26;;;;;;;9.88;2.92;;;;;;;19.92;50.10;93849.53;5111488;28;20028;-68
2021/06/11 08:30:51;;;;;;;7.25;3.10;;;;;;;19.88;49.47;93856.06;5105240;27;20030;-69
2021/06/11 08:33:16;;;;;;;4.63;2.85;;;;;;;19.83;49.47;93851.78;5089744;28;20028;-68
2021/06/11 08:35:42;;;;;;;5.95;2.92;;;;;;;19.90;50.76;93846.41;5089547;28;20081;-68
2021/06/11 08:38:08;;;;;;;8.57;3.92;;;;;;;19.82;50.75;93845.59;5091146;28;20059;-68
2021/06/11 08:40:33;;;;;;;7.60;3.53;;;;;;;19.91;50.84;93842.56;5089347;28;20027;-69
2021/06/11 08:42:59;;;;;;;10.43;4.03;;;;;;;19.94;50.97;93847.22;5089423;28;20193;-69
2021/06/11 08:45:24;;;;;;;11.68;3.63;;;;;;;20.00;50.71;93840.31;5094897;28;20024;-68
2021/06/11 08:47:54;;;;;;;6.50;3.33;;;;;;;19.97;50.82;93834.91;5089564;28;20133;-69
2021/06/11 08:50:28;;;;;;;6.85;3.42;;;;;;;20.03;50.83;93834.19;5090852;28;20027;-69
2021/06/11 08:52:55;;;;;;;7.65;3.17;;;;;;;20.22;49.08;93835.09;5091961;28;20456;-68
2021/06/11 08:55:21;;;;;;;6.00;2.90;;;;;;;20.27;47.86;93829.34;5111160;28;20443;-69
2021/06/11 08:57:47;;;;;;;7.57;3.28;;;;;;;20.29;48.00;93815.44;5110808;28;20035;-69
2021/06/11 09:00:13;;;;;;;7.00;3.35;;;;;;;20.28;49.52;93822.00;5098986;28;20399;-68
2021/06/11 09:03:17;;;;;;;16.10;3.50;;;;;;;20.33;49.05;93808.13;5090479;28;20028;-69
2021/06/11 09:05:44;;;;;;;8.35;2.95;;;;;;;20.50;48.51;93810.19;5090181;28;20028;-68
2021/06/11 09:08:16;;;;;;;8.23;3.90;;;;;;;20.59;46.74;93818.00;5088778;28;20134;-68
2021/06/11 09:10:43;;;;;;;11.80;2.80;;;;;;;20.69;48.34;93819.22;5089835;28;20059;-69
2021/06/11 09:13:09;;;;;;;3.53;2.40;;;;;;;20.78;48.01;93816.94;5088892;28;20423;-68
2021/06/11 09:15:34;;;;;;;7.53;2.70;;;;;;;20.87;46.61;93817.38;5088998;28;20024;-68
2021/06/11 09:18:00;;;;;;;6.97;2.50;;;;;;;20.93;45.49;93820.50;5090246;28;20036;-69
2021/06/11 09:20:40;;;;;;;6.18;3.40;;;;;;;21.02;46.79;93810.09;5090490;28;20209;-68
2021/06/11 09:23:07;;;;;;;9.10;3.10;;;;;;;21.26;44.39;93813.28;5090086;28;20380;-70
2021/06/11 09:25:43;;;;;;;6.70;2.83;;;;;;;21.45;44.38;93818.41;5090130;28;20024;-70
2021/06/11 09:28:23;;;;;;;5.07;2.60;;;;;;;21.30;44.02;93814.84;5090007;28;20068;-69
2021/06/11 09:30:52;;;;;;;3.78;2.75;;;;;;;21.39;44.37;93807.16;5090291;28;20028;-69
2021/06/11 09:33:20;;;;;;;7.97;2.60;;;;;;;21.42;44.53;93814.53;5099572;28;20031;-68
2021/06/11 09:35:56;;;;;;;5.00;2.50;;;;;;;21.42;44.59;93811.03;5108837;28;20037;-69
2021/06/11 09:38:26;;;;;;;7.82;2.45;;;;;;;21.48;43.00;93811.47;5110444;28;20175;-68
2021/06/11 09:40:57;;;;;;;3.70;2.22;;;;;;;21.44;41.16;93801.38;5108930;28;20093;-68
2021/06/11 09:43:24;;;;;;;6.33;2.67;;;;;;;21.41;40.87;93799.41;5093579;28;20024;-68
2021/06/11 09:46:12;;;;;;;6.85;2.60;;;;;;;21.59;41.50;93785.91;5088585;28;20038;-68
2021/06/11 09:48:48;;;;;;;4.68;2.30;;;;;;;21.79;40.86;93790.97;5094531;28;20028;-68
2021/06/11 09:51:13;;;;;;;5.63;2.50;;;;;;;21.89;41.65;93794.88;5110300;28;20024;-68
2021/06/11 09:53:39;;;;;;;10.00;3.65;;;;;;;22.04;41.50;93797.22;5108238;28;20046;-68
2021/06/11 09:56:04;;;;;;;15.77;3.08;;;;;;;22.18;39.93;93793.69;5095110;28;20027;-68
2021/06/11 09:58:36;;;;;;;8.27;2.63;;;;;;;22.32;38.73;93789.47;5089503;28;20036;-68
2021/06/11 10:01:09;;;;;;;7.13;2.55;;;;;;;22.48;39.34;93787.09;5091906;28;20044;-68
2021/06/11 10:03:37;;;;;;;7.82;2.58;;;;;;;22.38;39.98;93779.75;5092855;28;20032;-68
2021/06/11 10:06:14;;;;;;;7.05;2.50;;;;;;;22.33;38.05;93775.50;5093033;28;20083;-68
2021/06/11 10:08:42;;;;;;;6.45;3.80;;;;;;;22.30;37.66;93773.56;5093661;28;20043;-68
2021/06/11 10:11:13;;;;;;;5.20;3.58;;;;;;;22.39;38.98;93771.22;5093956;28;20066;-68
2021/06/11 10:13:42;;;;;;;3.63;2.47;;;;;;;22.51;37.75;93767.34;5093752;28;20085;-68
2021/06/11 10:16:10;;;;;;;8.57;2.80;;;;;;;22.60;37.50;93775.06;5093841;28;20125;-68
2021/06/11 10:18:35;;;;;;;9.00;2.80;;;;;;;22.75;39.23;93762.22;5093761;28;20035;-68
2021/06/11 10:21:02;;;;;;;6.13;2.88;;;;;;;22.91;37.16;93767.97;5093530;28;20031;-68
2021/06/11 10:23:29;;;;;;;9.48;2.75;;;;;;;23.13;37.80;93757.06;5112426;28;20031;-68
2021/06/11 10:25:56;;;;;;;4.93;1.90;;;;;;;23.26;37.83;93763.59;5111503;28;20039;-67
2021/06/11 10:28:31;;;;;;;9.63;3.22;;;;;;;23.06;34.86;93757.09;5112743;28;20024;-68
2021/06/11 10:30:59;;;;;;;4.25;1.95;;;;;;;23.10;35.55;93757.84;5091680;28;20043;-68
2021/06/11 10:33:43;;;;;;;3.08;2.03;;;;;;;23.22;36.57;93751.97;5090860;28;20020;-67
2021/06/11 10:36:29;;;;;;;10.43;2.25;;;;;;;23.40;35.87;93749.16;5091553;28;20550;-68
2021/06/11 10:38:56;;;;;;;3.45;2.20;;;;;;;23.59;35.71;93753.31;5092641;28;20103;-68
2021/06/11 10:41:22;;;;;;;8.02;2.25;;;;;;;23.72;34.36;93759.84;5101576;28;20031;-67
2021/06/11 10:43:48;;;;;;;5.57;3.08;;;;;;;23.66;33.79;93742.38;5128936;27;20023;-68
2021/06/11 10:46:25;;;;;;;7.28;2.20;;;;;;;23.80;34.62;93738.81;5111646;28;20042;-68
2021/06/11 10:48:56;;;;;;;2.90;1.80;;;;;;;23.90;33.99;93758.97;5112967;28;20055;-68
2021/06/11 10:51:50;;;;;;;5.90;2.30;;;;;;;23.90;33.08;93762.47;5111999;28;20395;-68
2021/06/11 10:54:15;;;;;;;3.53;1.75;;;;;;;23.80;30.71;93744.25;5099381;28;20035;-67
2021/06/11 10:57:10;;;;;;;2.70;1.77;;;;;;;23.81;32.39;93743.06;5111489;28;20027;-67
2021/06/11 10:59:40;;;;;;;4.40;1.88;;;;;;;23.85;32.15;93734.91;5105727;28;20044;-67
2021/06/11 11:02:06;;;;;;;2.60;1.80;;;;;;;23.77;32.12;93740.41;5111466;28;20093;-69
2021/06/11 11:04:35;;;;;;;7.80;2.13;;;;;;;23.57;34.77;93750.19;5112983;28;20055;-69
2021/06/11 11:07:25;;;;;;;10.50;2.75;;;;;;;23.31;34.49;93751.53;5110366;28;20042;-69
2021/06/11 11:09:57;;;;;;;18.52;3.78;;;;;;;22.74;40.05;93757.97;5091119;28;20032;-69
2021/06/11 11:12:27;;;;;;;11.88;3.72;;;;;;;22.39;41.02;93767.75;5112666;28;20120;-69
2021/06/11 11:14:57;;;;;;;10.18;2.60;;;;;;;22.14;41.24;93779.34;5111247;28;20019;-69
2021/06/11 11:17:24;;;;;;;7.40;2.58;;;;;;;21.44;41.73;93806.78;5112741;28;20134;-67
2021/06/11 11:20:02;;;;;;;17.45;2.80;;;;;;;21.16;41.63;93802.00;5112761;28;20164;-67
2021/06/11 11:22:37;;;;;;;23.75;3.75;;;;;;;20.77;43.26;93807.25;5110138;28;20401;-68
2021/06/11 11:25:13;;;;;;;9.20;2.85;;;;;;;20.62;43.19;93822.66;5112772;28;20370;-68
2021/06/11 11:27:49;;;;;;;7.05;2.83;;;;;;;20.43;42.86;93818.22;5107249;28;20020;-67
2021/06/11 11:30:15;;;;;;;9.85;2.45;;;;;;;20.40;42.87;93810.88;5099452;28;20032;-67
2021/06/11 11:32:40;;;;;;;7.13;2.55;;;;;;;20.39;42.86;93817.44;5107069;28;20062;-67
2021/06/11 11:35:07;;;;;;;7.57;2.60;;;;;;;20.37;42.98;93807.00;5104811;28;20505;-67